Carnival Pride — H3VU — position and weather

sailwx.info

Track history (hours):
 
Tides and Currents Weather Stations Pressure Air Temp Water Temp Dewpoint Dewpoint Depression Visibility Wind Speed Wind Dir Waves Ship Positions

Carnival Pride

Operator: Carnival Cruise Lines

Last reported at 2016-Feb-04 11:00 UTC. Time now 2016-Feb-06 09:23 UTC.
Position N 31°30' W 065°36'.

Type: Ship. MMSI: 354215000.

Wind from 050 at 30 knots

Waves 5.0 meters (16 feet), 4 second period

Barometer 1013.0 mb
Air temperature 25.0 ° C
Visibility: greater than 0.1 NM
Dewpoint 22.0 ° C
Water temperature 22.0 ° C

Date/timePositionNaut miles runAvg speedWind from/ knotsBaromVisibWave heightAir tempDewpointWater temp
2016-Feb-04 11:00N 31°30' W 065°36'85930.1 050 / 301013.0 0.1 5.025.022.022.0
2016-Feb-03 06:27N 17°29' W 062°27'1111.9
2016-Feb-03 05:33N 17°21' W 062°20'1211.9
2016-Feb-03 04:33N 17°12' W 062°12'1211.5
2016-Feb-03 03:32N 17°00' W 062°13'1111.7
2016-Feb-03 02:33N 16°50' W 062°18'1212.0
2016-Feb-03 01:33N 16°40' W 062°26'  
2016-Jan-30 05:31N 17°43' W 062°51'10815.3
2016-Jan-29 22:27N 18°06' W 064°42'1516.6
2016-Jan-29 21:33N 18°12' W 064°56'5 0.5
2016-Jan-29 11:03N 18°17' W 064°56'612.9
2016-Jan-29 10:33N 18°11' W 064°59'64 9.1
2016-Jan-29 03:33N 18°39' W 065°60'1212.5
2016-Jan-29 02:33N 18°29' W 066°08'2 1.9
2016-Jan-29 01:33N 18°28' W 066°07'0 0.0
2016-Jan-29 00:32N 18°28' W 066°07'0 0.0
2016-Jan-28 23:32N 18°28' W 066°07'0 0.0
2016-Jan-28 22:30N 18°28' W 066°07'0 0.0
2016-Jan-28 21:33N 18°28' W 066°07'0 0.0
2016-Jan-28 20:32N 18°28' W 066°07'0 0.0
2016-Jan-28 19:32N 18°28' W 066°07'0 0.0
2016-Jan-28 18:32N 18°28' W 066°07'0 0.0
2016-Jan-28 17:29N 18°28' W 066°07'0 0.0
2016-Jan-28 16:33N 18°28' W 066°07'0 0.0
2016-Jan-28 15:32N 18°28' W 066°07'0 0.0
2016-Jan-28 14:31N 18°28' W 066°07'0 0.0
2016-Jan-28 13:29N 18°28' W 066°07'0 0.0
2016-Jan-28 12:31N 18°28' W 066°07'0 0.0
2016-Jan-28 11:33N 18°28' W 066°07'0 0.0
2016-Jan-28 10:32N 18°28' W 066°07'0 0.0
2016-Jan-28 09:33N 18°28' W 066°07'4 3.6
2016-Jan-28 08:33N 18°31' W 066°07'1110.9
2016-Jan-28 07:33N 18°40' W 066°01'  
Track history (hours):
 
Tides and Currents Weather Stations Pressure Air Temp Water Temp Dewpoint Dewpoint Depression Visibility Wind Speed Wind Dir Waves Ship Positions

Carnival Pride

Operator: Carnival Cruise Lines

Last reported at 2016-Feb-04 11:00 UTC. Time now 2016-Feb-06 09:23 UTC.
Position N 31°30' W 065°36'.

Type: Ship. MMSI: 354215000.

Wind from 050 at 30 knots

Waves 5.0 meters (16 feet), 4 second period

Barometer 1013.0 mb
Air temperature 25.0 ° C
Visibility: greater than 0.1 NM
Dewpoint 22.0 ° C
Water temperature 22.0 ° C

Date/timePositionNaut miles runAvg speedWind from/ knotsBaromVisibWave heightAir tempDewpointWater temp
2016-Feb-04 11:00N 31°30' W 065°36'85930.1 050 / 301013.0 0.1 5.025.022.022.0
2016-Feb-03 06:27N 17°29' W 062°27'1111.9
2016-Feb-03 05:33N 17°21' W 062°20'1211.9
2016-Feb-03 04:33N 17°12' W 062°12'1211.5
2016-Feb-03 03:32N 17°00' W 062°13'1111.7
2016-Feb-03 02:33N 16°50' W 062°18'1212.0
2016-Feb-03 01:33N 16°40' W 062°26'  
2016-Jan-30 05:31N 17°43' W 062°51'10815.3
2016-Jan-29 22:27N 18°06' W 064°42'1516.6
2016-Jan-29 21:33N 18°12' W 064°56'5 0.5
2016-Jan-29 11:03N 18°17' W 064°56'612.9
2016-Jan-29 10:33N 18°11' W 064°59'64 9.1
2016-Jan-29 03:33N 18°39' W 065°60'1212.5
2016-Jan-29 02:33N 18°29' W 066°08'2 1.9
2016-Jan-29 01:33N 18°28' W 066°07'0 0.0
2016-Jan-29 00:32N 18°28' W 066°07'0 0.0
2016-Jan-28 23:32N 18°28' W 066°07'0 0.0
2016-Jan-28 22:30N 18°28' W 066°07'0 0.0
2016-Jan-28 21:33N 18°28' W 066°07'0 0.0
2016-Jan-28 20:32N 18°28' W 066°07'0 0.0
2016-Jan-28 19:32N 18°28' W 066°07'0 0.0
2016-Jan-28 18:32N 18°28' W 066°07'0 0.0
2016-Jan-28 17:29N 18°28' W 066°07'0 0.0
2016-Jan-28 16:33N 18°28' W 066°07'0 0.0
2016-Jan-28 15:32N 18°28' W 066°07'0 0.0
2016-Jan-28 14:31N 18°28' W 066°07'0 0.0
2016-Jan-28 13:29N 18°28' W 066°07'0 0.0
2016-Jan-28 12:31N 18°28' W 066°07'0 0.0
2016-Jan-28 11:33N 18°28' W 066°07'0 0.0
2016-Jan-28 10:32N 18°28' W 066°07'0 0.0
2016-Jan-28 09:33N 18°28' W 066°07'4 3.6
2016-Jan-28 08:33N 18°31' W 066°07'1110.9
2016-Jan-28 07:33N 18°40' W 066°01'  

Dump ship's entire track history